Mercini Lady — A8DL4 — position and weather

sailwx.info

Track history (hours):
 
Tides and Currents Weather Stations Pressure Air Temp Water Temp Dewpoint Dewpoint Depression Visibility Wind Speed Wind Dir Waves Ship Positions

Mercini Lady

Last reported at 2018-Feb-21 07:58 UTC. Time now 2018-Feb-23 08:37 UTC.
Position N 17°44' E 071°21'.

Length 182 m; draft 11.8 m.

Type: Tanker. MMSI: 636012102.

Date/timePositionNaut miles runAvg speedWind from/ knotsBaromVisibWave heightAir tempDewpointWater temp
2018-Feb-21 07:58N 17°44' E 071°21'510.7
2018-Feb-21 07:30N 17°48' E 071°17'610.8
2018-Feb-21 06:58N 17°52' E 071°14'511.1
2018-Feb-21 06:28N 17°56' E 071°10'710.9
2018-Feb-21 05:49N 18°02' E 071°05'2010.8
2018-Feb-21 03:59N 18°16' E 070°50'510.5
2018-Feb-21 03:30N 18°19' E 070°46'  
2018-Feb-17 02:05N 19°12' E 070°08'211.0
2018-Feb-17 01:53N 19°10' E 070°10'2410.8
2018-Feb-16 23:41N 18°51' E 070°24'211.1
2018-Feb-16 23:28N 18°49' E 070°26'1510.9
2018-Feb-16 22:04N 18°38' E 070°37'  
Track history (hours):
 
Tides and Currents Weather Stations Pressure Air Temp Water Temp Dewpoint Dewpoint Depression Visibility Wind Speed Wind Dir Waves Ship Positions

Mercini Lady

Last reported at 2018-Feb-21 07:58 UTC. Time now 2018-Feb-23 08:37 UTC.
Position N 17°44' E 071°21'.

Length 182 m; draft 11.8 m.

Type: Tanker. MMSI: 636012102.

Date/timePositionNaut miles runAvg speedWind from/ knotsBaromVisibWave heightAir tempDewpointWater temp
2018-Feb-21 07:58N 17°44' E 071°21'510.7
2018-Feb-21 07:30N 17°48' E 071°17'610.8
2018-Feb-21 06:58N 17°52' E 071°14'511.1
2018-Feb-21 06:28N 17°56' E 071°10'710.9
2018-Feb-21 05:49N 18°02' E 071°05'2010.8
2018-Feb-21 03:59N 18°16' E 070°50'510.5
2018-Feb-21 03:30N 18°19' E 070°46'  
2018-Feb-17 02:05N 19°12' E 070°08'211.0
2018-Feb-17 01:53N 19°10' E 070°10'2410.8
2018-Feb-16 23:41N 18°51' E 070°24'211.1
2018-Feb-16 23:28N 18°49' E 070°26'1510.9
2018-Feb-16 22:04N 18°38' E 070°37'  

Dump ship's entire track history